createdAt,value
2018-03-06T00:00:21.012Z,4.48
2018-03-06T00:02:48.648Z,4.47
2018-03-06T00:05:16.599Z,4.45
2018-03-06T00:07:44.206Z,4.43
2018-03-06T00:10:11.822Z,4.42
2018-03-06T00:12:39.414Z,4.42
2018-03-06T00:15:07.339Z,4.38
2018-03-06T00:17:35.053Z,4.38
2018-03-06T00:20:02.653Z,4.37
2018-03-06T00:22:30.376Z,4.37
2018-03-06T00:24:57.965Z,4.35
2018-03-06T00:27:25.566Z,4.36
2018-03-06T00:29:53.177Z,4.37
2018-03-06T00:32:20.787Z,4.37
2018-03-06T00:34:48.487Z,4.32
2018-03-06T00:37:16.075Z,4.33
2018-03-06T00:39:43.663Z,4.32
2018-03-06T00:42:11.307Z,4.33
2018-03-06T00:44:39.126Z,4.34
2018-03-06T00:47:06.841Z,4.38
2018-03-06T00:49:34.490Z,4.37
2018-03-06T00:52:02.150Z,4.39
2018-03-06T00:54:29.741Z,4.37
2018-03-06T00:56:57.325Z,4.35
2018-03-06T00:59:24.987Z,4.38
2018-03-06T01:01:52.623Z,4.36
2018-03-06T01:04:20.208Z,4.34
2018-03-06T01:06:47.876Z,4.36
2018-03-06T01:09:15.519Z,4.36
2018-03-06T01:11:43.123Z,4.36
2018-03-06T01:14:10.753Z,4.34
2018-03-06T01:16:38.366Z,4.31
2018-03-06T01:19:06.005Z,4.29
2018-03-06T01:21:33.783Z,4.27
2018-03-06T01:24:01.791Z,4.25
2018-03-06T01:26:29.372Z,4.23
2018-03-06T01:28:56.990Z,4.19
2018-03-06T01:31:24.630Z,4.13
2018-03-06T01:33:52.228Z,4.12
2018-03-06T01:36:19.870Z,4.11
2018-03-06T01:38:47.457Z,4.09
2018-03-06T01:41:15.039Z,4.06
2018-03-06T01:43:42.663Z,4.03
2018-03-06T01:46:10.260Z,3.99
2018-03-06T01:48:38.739Z,3.95
2018-03-06T01:51:07.087Z,3.93
2018-03-06T01:53:35.187Z,3.89
2018-03-06T01:56:03.390Z,3.88
2018-03-06T01:58:31.324Z,3.86
2018-03-06T02:00:59.334Z,3.84
2018-03-06T02:03:27.393Z,3.80
2018-03-06T02:05:55.429Z,3.77
2018-03-06T02:08:23.544Z,3.76
2018-03-06T02:10:51.160Z,3.75
2018-03-06T02:13:18.827Z,3.73
2018-03-06T02:15:46.507Z,3.72
2018-03-06T02:18:14.134Z,3.69
2018-03-06T02:20:41.786Z,3.67
2018-03-06T02:23:09.423Z,3.67
2018-03-06T02:25:37.125Z,3.65
2018-03-06T02:28:04.771Z,3.64
2018-03-06T02:30:32.568Z,3.63
2018-03-06T02:33:01.059Z,3.61
2018-03-06T02:35:28.704Z,3.60
2018-03-06T02:37:56.332Z,3.58
2018-03-06T02:40:23.910Z,3.54
2018-03-06T02:42:51.528Z,3.51
2018-03-06T02:45:19.221Z,3.50
2018-03-06T02:47:46.861Z,3.49
2018-03-06T02:50:14.450Z,3.50
2018-03-06T02:52:42.141Z,3.46
2018-03-06T02:55:09.981Z,3.44
2018-03-06T02:57:37.574Z,3.41
2018-03-06T03:00:05.300Z,3.38
2018-03-06T03:02:33.012Z,3.37
2018-03-06T03:05:00.625Z,3.36
2018-03-06T03:07:28.627Z,3.32
2018-03-06T03:09:56.295Z,3.32
2018-03-06T03:12:24.052Z,3.32
2018-03-06T03:14:52.129Z,3.29
2018-03-06T03:17:19.840Z,3.28
2018-03-06T03:19:47.464Z,3.27
2018-03-06T03:22:15.123Z,3.25
2018-03-06T03:24:42.787Z,3.23
2018-03-06T03:27:10.484Z,3.25
2018-03-06T03:29:38.077Z,3.23
2018-03-06T03:32:05.702Z,3.21
2018-03-06T03:34:33.348Z,3.22
2018-03-06T03:37:01.002Z,3.22
2018-03-06T03:39:28.693Z,3.23
2018-03-06T03:41:56.334Z,3.22
2018-03-06T03:44:24.043Z,3.19
2018-03-06T03:46:51.668Z,3.18
2018-03-06T03:49:19.805Z,3.15
2018-03-06T03:51:47.453Z,3.12
2018-03-06T03:54:15.076Z,3.12
2018-03-06T03:56:42.770Z,3.09
2018-03-06T03:59:10.429Z,3.09
2018-03-06T04:01:38.089Z,3.04
2018-03-06T04:04:05.694Z,3.05
2018-03-06T04:06:33.561Z,3.04
2018-03-06T04:09:01.227Z,3.03
2018-03-06T04:11:28.840Z,3.03
2018-03-06T04:13:56.474Z,3.01
2018-03-06T04:16:24.148Z,3.01
2018-03-06T04:18:51.852Z,2.99
2018-03-06T04:21:19.480Z,2.96
2018-03-06T04:23:47.158Z,2.97
2018-03-06T04:26:14.819Z,2.96
2018-03-06T04:28:42.435Z,2.94
2018-03-06T04:31:10.050Z,2.92
2018-03-06T04:33:37.693Z,2.89
2018-03-06T04:36:05.352Z,2.85
2018-03-06T04:38:33.026Z,2.85
2018-03-06T04:41:00.663Z,2.83
2018-03-06T04:43:28.309Z,2.80
2018-03-06T04:45:56.050Z,2.83
2018-03-06T04:48:23.675Z,2.84
2018-03-06T04:50:51.298Z,2.83
2018-03-06T04:53:18.915Z,2.86
2018-03-06T04:55:46.514Z,2.82
2018-03-06T04:58:14.169Z,2.81
2018-03-06T05:00:41.857Z,2.82
2018-03-06T05:03:09.479Z,2.79
2018-03-06T05:05:37.733Z,2.79
2018-03-06T05:08:05.374Z,2.76
2018-03-06T05:10:32.968Z,2.76
2018-03-06T05:13:00.610Z,2.76
2018-03-06T05:15:28.248Z,2.74
2018-03-06T05:17:55.856Z,2.73
2018-03-06T05:20:24.406Z,2.73
2018-03-06T05:22:53.528Z,2.69
2018-03-06T05:25:21.197Z,2.68
2018-03-06T05:27:48.879Z,2.67
2018-03-06T05:30:16.470Z,2.67
2018-03-06T05:32:44.139Z,2.67
2018-03-06T05:35:11.828Z,2.65
2018-03-06T05:37:39.477Z,2.65
2018-03-06T05:40:07.097Z,2.63
2018-03-06T05:42:34.758Z,2.61
2018-03-06T05:45:02.725Z,2.62
2018-03-06T05:47:30.336Z,2.62
2018-03-06T05:49:57.984Z,2.64
2018-03-06T05:52:25.683Z,2.64
2018-03-06T05:54:53.277Z,2.64
2018-03-06T05:57:20.873Z,2.63
2018-03-06T05:59:48.571Z,2.63
2018-03-06T06:02:16.213Z,2.64
2018-03-06T06:04:43.859Z,2.64
2018-03-06T06:07:11.537Z,2.63
2018-03-06T06:09:39.153Z,2.65
2018-03-06T06:12:06.872Z,2.64
2018-03-06T06:14:34.557Z,2.62
2018-03-06T06:17:02.165Z,2.60
2018-03-06T06:19:29.789Z,2.59
2018-03-06T06:21:57.449Z,2.58
2018-03-06T06:24:25.125Z,2.57
2018-03-06T06:26:52.650Z,2.53
2018-03-06T06:29:20.320Z,2.50
2018-03-06T06:31:47.930Z,2.47
2018-03-06T06:34:16.056Z,2.44
2018-03-06T06:36:43.668Z,2.41
2018-03-06T06:39:11.261Z,2.41
2018-03-06T06:41:38.914Z,2.43
2018-03-06T06:44:06.475Z,2.45
2018-03-06T06:46:34.077Z,2.48
2018-03-06T06:49:01.690Z,2.49
2018-03-06T06:51:29.296Z,2.51
2018-03-06T06:53:56.945Z,2.55
2018-03-06T06:56:24.526Z,2.59
2018-03-06T06:58:52.189Z,2.63
2018-03-06T07:01:19.827Z,2.70
2018-03-06T07:03:47.387Z,2.76
2018-03-06T07:06:15.260Z,2.78
2018-03-06T07:08:42.895Z,2.79
2018-03-06T07:11:10.531Z,2.85
2018-03-06T07:13:38.212Z,2.91
2018-03-06T07:16:05.837Z,2.93
2018-03-06T07:18:34.390Z,2.96
2018-03-06T07:21:01.974Z,3.01
2018-03-06T07:23:29.661Z,3.08
2018-03-06T07:25:57.252Z,3.15
2018-03-06T07:28:24.845Z,3.23
2018-03-06T07:30:52.558Z,3.33
2018-03-06T07:33:20.144Z,3.38
2018-03-06T07:35:47.740Z,3.42
2018-03-06T07:38:15.417Z,3.49
2018-03-06T07:40:43.005Z,3.56
2018-03-06T07:43:10.573Z,3.63
2018-03-06T07:45:38.203Z,3.71
2018-03-06T07:48:05.823Z,3.77
2018-03-06T07:50:33.536Z,3.85
2018-03-06T07:53:01.446Z,3.94
2018-03-06T07:55:29.027Z,4.02
2018-03-06T07:57:56.640Z,4.10
2018-03-06T08:00:24.374Z,4.20
2018-03-06T08:02:51.957Z,4.32
2018-03-06T08:05:19.768Z,4.38
2018-03-06T08:07:47.405Z,4.47
2018-03-06T08:10:15.215Z,4.57
2018-03-06T08:12:42.877Z,4.64
2018-03-06T08:15:10.493Z,4.74
2018-03-06T08:17:38.093Z,4.79
2018-03-06T08:20:05.735Z,4.86
2018-03-06T08:22:33.422Z,4.94
2018-03-06T08:25:01.012Z,5.08
2018-03-06T08:27:28.632Z,5.17
2018-03-06T08:29:56.227Z,5.28
2018-03-06T08:32:23.891Z,5.43
2018-03-06T08:34:51.471Z,5.60
2018-03-06T08:37:19.104Z,5.78
2018-03-06T08:39:46.785Z,5.92
2018-03-06T08:42:14.373Z,6.04
2018-03-06T08:44:41.958Z,6.18
2018-03-06T08:47:09.595Z,6.33
2018-03-06T08:49:37.246Z,6.51
2018-03-06T08:54:31.730Z,6.79
2018-03-06T08:56:59.346Z,6.92
2018-03-06T08:59:26.919Z,7.03
2018-03-06T09:01:54.626Z,7.12
2018-03-06T09:04:22.200Z,7.19
2018-03-06T09:06:49.780Z,7.24
2018-03-06T09:09:17.420Z,7.28
2018-03-06T09:11:45.007Z,7.33
2018-03-06T09:14:12.606Z,7.42
2018-03-06T09:16:40.219Z,7.49
2018-03-06T09:19:08.205Z,7.56
2018-03-06T09:21:36.060Z,7.66
2018-03-06T09:24:03.613Z,7.78
2018-03-06T09:26:31.226Z,7.88
2018-03-06T09:28:58.898Z,7.96
2018-03-06T09:31:26.469Z,8.02
2018-03-06T09:33:54.109Z,8.06
2018-03-06T09:36:21.762Z,8.12
2018-03-06T09:38:49.343Z,8.25
2018-03-06T09:41:16.915Z,8.34
2018-03-06T09:43:44.545Z,8.46
2018-03-06T09:46:12.127Z,8.61
2018-03-06T09:48:39.778Z,8.74
2018-03-06T09:51:07.371Z,8.84
2018-03-06T09:53:34.953Z,9.02
2018-03-06T09:56:02.954Z,9.13
2018-03-06T09:58:30.549Z,9.21
2018-03-06T10:00:58.216Z,9.28
2018-03-06T10:03:25.789Z,9.37
2018-03-06T10:05:53.354Z,9.46
2018-03-06T10:08:20.944Z,9.54
2018-03-06T10:10:48.599Z,9.59
2018-03-06T10:13:16.205Z,9.68
2018-03-06T10:15:43.802Z,9.80
2018-03-06T10:18:11.419Z,9.91
2018-03-06T10:20:38.993Z,10.03
2018-03-06T10:23:06.582Z,10.13
2018-03-06T10:25:34.171Z,10.22
2018-03-06T10:28:01.826Z,10.29
2018-03-06T10:30:29.501Z,10.46
2018-03-06T10:32:57.091Z,10.62
2018-03-06T10:35:24.715Z,10.81
2018-03-06T10:37:52.364Z,11.01
2018-03-06T10:40:19.930Z,11.22
2018-03-06T10:42:47.514Z,11.44
2018-03-06T10:45:15.162Z,11.63
2018-03-06T10:47:42.823Z,11.86
2018-03-06T10:50:10.438Z,12.12
2018-03-06T10:52:38.034Z,12.34
2018-03-06T10:55:05.723Z,12.55
2018-03-06T10:57:33.269Z,12.76
2018-03-06T11:00:00.926Z,12.93
2018-03-06T11:02:32.381Z,13.13
2018-03-06T11:05:00.068Z,13.38
2018-03-06T11:07:27.662Z,13.44
2018-03-06T11:09:55.282Z,13.55
2018-03-06T11:12:23.118Z,13.63
2018-03-06T11:14:50.682Z,13.71
2018-03-06T11:17:18.286Z,13.70
2018-03-06T11:19:45.914Z,13.80
2018-03-06T11:22:13.718Z,13.92
2018-03-06T11:24:41.308Z,14.08
2018-03-06T11:27:08.918Z,14.19
2018-03-06T11:29:36.573Z,14.26
2018-03-06T11:32:04.142Z,14.26
2018-03-06T11:34:31.724Z,14.32
2018-03-06T11:36:59.344Z,14.38
2018-03-06T11:39:26.929Z,14.38
2018-03-06T11:41:54.577Z,14.36
2018-03-06T11:44:23.004Z,14.33
2018-03-06T11:46:50.569Z,14.29
2018-03-06T11:49:18.296Z,14.24
2018-03-06T11:51:45.913Z,14.16
2018-03-06T11:54:13.494Z,14.21
2018-03-06T11:56:41.169Z,14.32
2018-03-06T11:59:08.766Z,14.33
2018-03-06T12:01:36.681Z,14.23
2018-03-06T12:04:04.305Z,14.02
2018-03-06T12:06:31.894Z,13.88
2018-03-06T12:08:59.558Z,13.84
2018-03-06T12:11:27.192Z,13.84
2018-03-06T12:13:54.842Z,13.85
2018-03-06T12:16:22.429Z,13.94
2018-03-06T12:18:50.032Z,13.95
2018-03-06T12:21:17.674Z,13.98
2018-03-06T12:23:45.269Z,13.99
2018-03-06T12:26:12.942Z,14.06
2018-03-06T12:28:40.529Z,14.18
2018-03-06T12:31:08.138Z,14.25
2018-03-06T12:33:35.755Z,14.29
2018-03-06T12:36:03.354Z,14.43
2018-03-06T12:38:30.983Z,14.55
2018-03-06T12:40:58.818Z,14.62
2018-03-06T12:43:26.640Z,14.75
2018-03-06T12:45:54.239Z,14.83
2018-03-06T12:48:21.841Z,14.89
2018-03-06T12:50:49.528Z,15.03
2018-03-06T12:53:17.117Z,15.01
2018-03-06T12:55:44.718Z,14.97
2018-03-06T12:58:12.315Z,14.95
2018-03-06T13:00:40.474Z,14.96
2018-03-06T13:03:08.095Z,14.98
2018-03-06T13:05:36.026Z,15.00
2018-03-06T13:08:03.640Z,14.99
2018-03-06T13:10:34.409Z,15.02
2018-03-06T13:13:02.045Z,14.99
2018-03-06T13:15:29.716Z,14.81
2018-03-06T13:17:57.316Z,14.74
2018-03-06T13:20:24.909Z,14.71
2018-03-06T13:22:52.509Z,14.73
2018-03-06T13:25:20.077Z,14.68
2018-03-06T13:27:47.685Z,14.64
2018-03-06T13:30:15.273Z,14.64
2018-03-06T13:32:42.975Z,14.70
2018-03-06T13:35:10.613Z,14.83
2018-03-06T13:37:38.184Z,14.99
2018-03-06T13:40:05.806Z,15.00
2018-03-06T13:42:33.426Z,15.05
2018-03-06T13:45:00.989Z,15.15
2018-03-06T13:47:28.579Z,15.30
2018-03-06T13:49:56.217Z,15.37
2018-03-06T13:52:23.891Z,15.44
2018-03-06T13:54:51.516Z,15.50
2018-03-06T13:57:19.121Z,15.52
2018-03-06T13:59:46.733Z,15.56
2018-03-06T14:02:14.361Z,15.60
2018-03-06T14:04:41.986Z,15.62
2018-03-06T14:07:09.554Z,15.67
2018-03-06T14:09:37.155Z,15.77
2018-03-06T14:12:04.712Z,15.89
2018-03-06T14:14:32.457Z,16.04
2018-03-06T14:17:00.060Z,16.15
2018-03-06T14:19:27.682Z,16.16
2018-03-06T14:21:55.370Z,16.22
2018-03-06T14:24:22.970Z,16.23
2018-03-06T14:26:50.543Z,16.26
2018-03-06T14:29:18.168Z,16.41
2018-03-06T14:31:45.743Z,16.69
2018-03-06T14:34:13.423Z,16.92
2018-03-06T14:36:41.006Z,17.07
2018-03-06T14:39:08.598Z,17.17
2018-03-06T14:41:36.218Z,17.29
2018-03-06T14:44:03.825Z,17.35
2018-03-06T14:46:31.637Z,17.44
2018-03-06T14:48:59.256Z,17.48
2018-03-06T14:51:26.914Z,17.47
2018-03-06T14:53:54.547Z,17.47
2018-03-06T14:56:22.130Z,17.42
2018-03-06T14:58:49.759Z,17.42
2018-03-06T15:01:17.358Z,17.44
2018-03-06T15:03:45.107Z,17.45
2018-03-06T15:06:12.722Z,17.43
2018-03-06T15:08:40.322Z,17.38
2018-03-06T15:11:07.969Z,17.25
2018-03-06T15:13:35.680Z,17.13
2018-03-06T15:16:03.269Z,16.93
2018-03-06T15:18:30.850Z,16.82
2018-03-06T15:20:58.713Z,16.74
2018-03-06T15:23:26.543Z,16.67
2018-03-06T15:25:54.211Z,16.50
2018-03-06T15:28:21.856Z,16.35
2018-03-06T15:30:49.498Z,16.14
2018-03-06T15:33:17.254Z,15.94
2018-03-06T15:35:44.885Z,15.86
2018-03-06T15:38:12.523Z,15.80
2018-03-06T15:40:41.435Z,15.71
2018-03-06T15:43:10.533Z,15.55
2018-03-06T15:45:38.183Z,15.42
2018-03-06T15:48:06.047Z,15.32
2018-03-06T15:50:33.620Z,15.19
2018-03-06T15:53:01.256Z,15.10
2018-03-06T15:55:28.841Z,15.08
2018-03-06T15:57:57.847Z,15.04
2018-03-06T16:00:25.506Z,15.00
2018-03-06T16:02:53.165Z,14.94
2018-03-06T16:05:20.795Z,14.80
2018-03-06T16:07:48.691Z,14.69
2018-03-06T16:10:16.278Z,14.55
2018-03-06T16:12:43.888Z,14.45
2018-03-06T16:15:11.501Z,14.42
2018-03-06T16:17:39.090Z,14.42
2018-03-06T16:20:06.696Z,14.40
2018-03-06T16:22:34.347Z,14.36
2018-03-06T16:25:01.928Z,14.32
2018-03-06T16:27:29.530Z,14.27
2018-03-06T16:29:57.170Z,14.21
2018-03-06T16:32:24.742Z,14.21
2018-03-06T16:34:52.351Z,14.22
2018-03-06T16:37:19.997Z,14.22
2018-03-06T16:39:47.585Z,14.20
2018-03-06T16:42:15.210Z,14.13
2018-03-06T16:44:42.821Z,14.04
2018-03-06T16:47:10.433Z,13.94
2018-03-06T16:49:38.051Z,13.87
2018-03-06T16:52:06.439Z,13.83
2018-03-06T16:54:34.060Z,13.81
2018-03-06T16:57:01.631Z,13.78
2018-03-06T16:59:29.211Z,13.73
2018-03-06T17:01:56.836Z,13.66
2018-03-06T17:04:24.455Z,13.63
2018-03-06T17:06:52.092Z,13.59
2018-03-06T17:09:19.739Z,13.55
2018-03-06T17:11:47.489Z,13.49
2018-03-06T17:14:15.097Z,13.42
2018-03-06T17:16:42.759Z,13.35
2018-03-06T17:19:10.399Z,13.28
2018-03-06T17:21:37.961Z,13.20
2018-03-06T17:24:05.604Z,13.11
2018-03-06T17:26:33.171Z,12.99
2018-03-06T17:29:00.754Z,12.89
2018-03-06T17:31:28.435Z,12.73
2018-03-06T17:33:56.032Z,12.63
2018-03-06T17:36:23.629Z,12.56
2018-03-06T17:38:51.363Z,12.49
2018-03-06T17:41:19.320Z,12.42
2018-03-06T17:43:46.960Z,12.32
2018-03-06T17:46:14.580Z,12.24
2018-03-06T17:48:42.172Z,12.14
2018-03-06T17:51:09.738Z,12.05
2018-03-06T17:53:37.523Z,11.96
2018-03-06T17:56:05.090Z,11.87
2018-03-06T17:58:32.705Z,11.78
2018-03-06T18:01:00.345Z,11.70
2018-03-06T18:03:27.956Z,11.62
2018-03-06T18:05:55.536Z,11.54
2018-03-06T18:08:23.216Z,11.46
2018-03-06T18:10:50.824Z,11.38
2018-03-06T18:13:18.405Z,11.30
2018-03-06T18:15:46.053Z,11.22
2018-03-06T18:18:13.632Z,11.13
2018-03-06T18:20:41.313Z,10.99
2018-03-06T18:23:09.024Z,10.89
2018-03-06T18:25:36.623Z,10.80
2018-03-06T18:28:04.294Z,10.67
2018-03-06T18:30:31.988Z,10.53
2018-03-06T18:32:59.625Z,10.44
2018-03-06T18:35:27.856Z,10.36
2018-03-06T18:37:55.639Z,10.27
2018-03-06T18:40:23.666Z,10.16
2018-03-06T18:42:51.250Z,10.10
2018-03-06T18:45:18.853Z,10.03
2018-03-06T18:47:46.516Z,9.99
2018-03-06T18:50:22.885Z,9.95
2018-03-06T18:52:56.072Z,9.92
2018-03-06T18:55:23.691Z,9.94
2018-03-06T18:57:51.421Z,9.94
2018-03-06T19:03:48.870Z,9.89
2018-03-06T19:06:24.301Z,9.87
2018-03-06T19:08:52.053Z,9.85
2018-03-06T19:11:20.843Z,9.85
2018-03-06T19:13:48.734Z,9.84
2018-03-06T19:16:16.344Z,9.83
2018-03-06T19:18:49.209Z,9.83
2018-03-06T19:21:21.943Z,9.82
2018-03-06T19:23:50.281Z,9.79
2018-03-06T19:26:17.953Z,9.76
2018-03-06T19:28:45.541Z,9.74
2018-03-06T19:31:13.117Z,9.72
2018-03-06T19:33:40.762Z,9.67
2018-03-06T19:36:08.349Z,9.66
2018-03-06T19:38:35.905Z,9.64
2018-03-06T19:41:03.631Z,9.62
2018-03-06T19:43:31.230Z,9.60
2018-03-06T19:45:58.810Z,9.57
2018-03-06T19:48:26.475Z,9.55
2018-03-06T19:50:54.054Z,9.51
2018-03-06T19:53:21.651Z,9.50
2018-03-06T19:55:49.281Z,9.48
2018-03-06T19:58:16.898Z,9.46
2018-03-06T20:00:44.536Z,9.46
2018-03-06T20:03:12.149Z,9.40
2018-03-06T20:05:42.091Z,9.36
2018-03-06T20:08:09.723Z,9.32
2018-03-06T20:10:37.337Z,9.29
2018-03-06T20:13:04.909Z,9.26
2018-03-06T20:15:32.587Z,9.26
2018-03-06T20:18:00.453Z,9.25
2018-03-06T20:20:28.036Z,9.24
2018-03-06T20:22:55.633Z,9.22
2018-03-06T20:25:28.783Z,9.21
2018-03-06T20:27:56.418Z,9.18
2018-03-06T20:30:29.657Z,9.17
2018-03-06T20:33:02.892Z,9.14
2018-03-06T20:35:30.526Z,9.12
2018-03-06T20:37:58.099Z,9.06
2018-03-06T20:40:31.113Z,9.02
2018-03-06T20:42:58.731Z,9.03
2018-03-06T20:45:26.413Z,8.99
2018-03-06T20:47:54.013Z,8.95
2018-03-06T20:50:21.585Z,8.92
2018-03-06T20:52:51.841Z,8.89
2018-03-06T20:55:19.394Z,8.85
2018-03-06T20:57:47.309Z,8.84
2018-03-06T21:00:14.970Z,8.82
2018-03-06T21:02:42.838Z,8.77
2018-03-06T21:05:10.473Z,8.74
2018-03-06T21:07:38.130Z,8.73
2018-03-06T21:10:05.715Z,8.69
2018-03-06T21:12:33.565Z,8.69
2018-03-06T21:15:01.444Z,8.67
2018-03-06T21:17:29.038Z,8.65
2018-03-06T21:19:56.590Z,8.65
2018-03-06T21:22:24.317Z,8.62
2018-03-06T21:24:51.883Z,8.60
2018-03-06T21:27:19.871Z,8.58
2018-03-06T21:29:47.456Z,8.51
2018-03-06T21:32:15.042Z,8.45
2018-03-06T21:34:42.665Z,8.39
2018-03-06T21:37:10.222Z,8.35
2018-03-06T21:39:37.785Z,8.30
2018-03-06T21:42:05.394Z,8.29
2018-03-06T21:44:32.954Z,8.28
2018-03-06T21:47:00.559Z,8.28
2018-03-06T21:49:28.225Z,8.27
2018-03-06T21:51:55.816Z,8.25
2018-03-06T21:54:23.931Z,8.26
2018-03-06T21:56:52.195Z,8.23
2018-03-06T21:59:20.247Z,8.21
2018-03-06T22:01:47.824Z,8.19
2018-03-06T22:04:15.442Z,8.15
2018-03-06T22:06:43.097Z,8.13
2018-03-06T22:09:10.962Z,8.12
2018-03-06T22:11:38.513Z,8.09
2018-03-06T22:14:06.106Z,8.06
2018-03-06T22:16:33.726Z,8.03
2018-03-06T22:19:01.333Z,8.01
2018-03-06T22:21:29.199Z,7.98
2018-03-06T22:23:56.827Z,7.93
2018-03-06T22:26:24.385Z,7.90
2018-03-06T22:28:52.117Z,7.85
2018-03-06T22:31:19.699Z,7.82
2018-03-06T22:33:47.354Z,7.81
2018-03-06T22:36:15.008Z,7.78
2018-03-06T22:38:42.589Z,7.76
2018-03-06T22:41:10.165Z,7.74
2018-03-06T22:43:37.835Z,7.73
2018-03-06T22:46:05.472Z,7.72
2018-03-06T22:48:33.116Z,7.70
2018-03-06T22:51:00.833Z,7.69
2018-03-06T22:53:28.415Z,7.68
2018-03-06T22:55:56.017Z,7.64
2018-03-06T22:58:23.820Z,7.61
2018-03-06T23:00:51.400Z,7.57
2018-03-06T23:03:19.008Z,7.56
2018-03-06T23:05:54.872Z,7.55
2018-03-06T23:08:22.507Z,7.49
2018-03-06T23:10:50.152Z,7.48
2018-03-06T23:15:44.674Z,7.47
2018-03-06T23:18:12.307Z,7.44
2018-03-06T23:20:39.885Z,7.42
2018-03-06T23:23:07.537Z,7.39
2018-03-06T23:25:35.149Z,7.36
2018-03-06T23:28:03.110Z,7.33
2018-03-06T23:30:30.750Z,7.31
2018-03-06T23:32:58.338Z,7.31
2018-03-06T23:35:25.998Z,7.31
2018-03-06T23:37:53.870Z,7.30
2018-03-06T23:40:21.448Z,7.28
2018-03-06T23:42:49.045Z,7.26
2018-03-06T23:45:16.767Z,7.24
2018-03-06T23:47:44.615Z,7.22
2018-03-06T23:50:12.223Z,7.20
2018-03-06T23:52:39.841Z,7.17
2018-03-06T23:55:14.191Z,7.14
2018-03-06T23:57:41.791Z,7.12
